createdAt,value
2022-11-07T00:00:37.697Z,12.55
2022-11-07T00:03:04.651Z,12.59
2022-11-07T00:05:31.401Z,12.63
2022-11-07T00:07:57.927Z,12.66
2022-11-07T00:10:24.505Z,12.66
2022-11-07T00:12:51.050Z,12.67
2022-11-07T00:15:17.570Z,12.72
2022-11-07T00:17:44.221Z,12.76
2022-11-07T00:20:11.174Z,12.79
2022-11-07T00:22:37.698Z,12.82
2022-11-07T00:25:04.593Z,12.86
2022-11-07T00:27:31.238Z,12.89
2022-11-07T00:29:57.817Z,12.95
2022-11-07T00:32:24.398Z,12.97
2022-11-07T00:34:50.954Z,13.01
2022-11-07T00:37:17.469Z,13.04
2022-11-07T00:39:44.191Z,13.03
2022-11-07T00:42:10.697Z,13.06
2022-11-07T00:44:37.273Z,13.08
2022-11-07T00:47:03.926Z,13.12
2022-11-07T00:49:30.511Z,13.13
2022-11-07T00:51:57.066Z,13.13
2022-11-07T00:54:23.790Z,13.14
2022-11-07T00:56:50.314Z,13.17
2022-11-07T00:59:16.890Z,13.18
2022-11-07T01:01:43.648Z,13.21
2022-11-07T01:04:32.971Z,13.23
2022-11-07T01:06:59.795Z,13.24
2022-11-07T01:09:26.380Z,13.25
2022-11-07T01:11:53.203Z,13.27
2022-11-07T01:14:21.874Z,13.27
2022-11-07T01:16:49.134Z,13.30
2022-11-07T01:19:16.477Z,13.30
2022-11-07T01:21:43.636Z,13.28
2022-11-07T01:24:12.433Z,13.30
2022-11-07T01:26:40.404Z,13.32
2022-11-07T01:29:07.228Z,13.32
2022-11-07T01:31:34.073Z,13.30
2022-11-07T01:34:01.245Z,13.29
2022-11-07T01:36:28.257Z,13.29
2022-11-07T01:38:54.948Z,13.28
2022-11-07T01:41:25.655Z,13.30
2022-11-07T01:44:24.269Z,13.27
2022-11-07T01:46:55.011Z,13.28
2022-11-07T01:49:28.266Z,13.27
2022-11-07T01:51:57.655Z,13.27
2022-11-07T01:54:28.173Z,13.27
2022-11-07T01:56:58.496Z,13.26
2022-11-07T01:59:29.987Z,13.25
2022-11-07T02:01:56.771Z,13.23
2022-11-07T02:04:27.580Z,13.22
2022-11-07T02:07:13.212Z,13.19
2022-11-07T02:09:40.922Z,13.23
2022-11-07T02:12:07.802Z,13.24
2022-11-07T02:14:34.328Z,13.23
2022-11-07T02:17:01.517Z,13.22
2022-11-07T02:19:40.619Z,13.20
2022-11-07T02:22:19.125Z,13.20
2022-11-07T02:24:50.777Z,13.20
2022-11-07T02:27:21.016Z,13.23
2022-11-07T02:29:52.109Z,13.23
2022-11-07T02:32:18.678Z,13.19
2022-11-07T02:34:45.272Z,13.17
2022-11-07T02:37:22.472Z,13.18
2022-11-07T02:39:49.916Z,13.19
2022-11-07T02:42:17.190Z,13.22
2022-11-07T02:44:43.797Z,13.20
2022-11-07T02:47:10.669Z,13.23
2022-11-07T02:49:37.167Z,13.25
2022-11-07T02:52:03.979Z,13.27
2022-11-07T02:54:30.486Z,13.28
2022-11-07T02:56:57.009Z,13.28
2022-11-07T02:59:26.974Z,13.26
2022-11-07T03:01:54.162Z,13.27
2022-11-07T03:04:20.825Z,13.29
2022-11-07T03:06:47.362Z,13.29
2022-11-07T03:09:14.049Z,13.27
2022-11-07T03:11:40.576Z,13.27
2022-11-07T03:14:07.087Z,13.29
2022-11-07T03:16:33.659Z,13.32
2022-11-07T03:19:00.216Z,13.33
2022-11-07T03:21:26.759Z,13.33
2022-11-07T03:23:53.340Z,13.33
2022-11-07T03:26:20.986Z,13.34
2022-11-07T03:28:47.485Z,13.36
2022-11-07T03:31:14.001Z,13.37
2022-11-07T03:33:40.525Z,13.36
2022-11-07T03:36:07.352Z,13.38
2022-11-07T03:38:33.880Z,13.40
2022-11-07T03:41:00.405Z,13.38
2022-11-07T03:43:26.933Z,13.37
2022-11-07T03:45:53.426Z,13.37
2022-11-07T03:48:19.961Z,13.35
2022-11-07T03:50:46.527Z,13.33
2022-11-07T03:53:13.401Z,13.30
2022-11-07T03:55:42.297Z,13.28
2022-11-07T03:58:08.930Z,13.26
2022-11-07T04:00:35.515Z,13.25
2022-11-07T04:03:04.427Z,13.24
2022-11-07T04:05:31.112Z,13.24
2022-11-07T04:07:57.935Z,13.22
2022-11-07T04:10:24.408Z,13.20
2022-11-07T04:13:09.325Z,13.18
2022-11-07T04:15:57.187Z,13.19
2022-11-07T04:18:23.844Z,13.18
2022-11-07T04:20:50.347Z,13.19
2022-11-07T04:23:17.203Z,13.20
2022-11-07T04:26:02.566Z,13.19
2022-11-07T04:28:29.096Z,13.19
2022-11-07T04:30:55.805Z,13.19
2022-11-07T04:33:22.393Z,13.21
2022-11-07T04:35:48.890Z,13.19
2022-11-07T04:38:15.571Z,13.18
2022-11-07T04:40:42.064Z,13.19
2022-11-07T04:43:09.639Z,13.22
2022-11-07T04:45:39.361Z,13.24
2022-11-07T04:48:06.277Z,13.27
2022-11-07T04:50:32.821Z,13.27
2022-11-07T04:52:59.349Z,13.29
2022-11-07T04:55:27.832Z,13.29
2022-11-07T04:57:54.326Z,13.27
2022-11-07T05:00:21.318Z,13.26
2022-11-07T05:02:48.436Z,13.24
2022-11-07T05:05:15.881Z,13.25
2022-11-07T05:07:43.071Z,13.24
2022-11-07T05:10:17.632Z,13.22
2022-11-07T05:12:44.166Z,13.22
2022-11-07T05:15:10.939Z,13.23
2022-11-07T05:17:37.501Z,13.24
2022-11-07T05:20:04.381Z,13.24
2022-11-07T05:22:55.134Z,13.23
2022-11-07T05:25:22.730Z,13.22
2022-11-07T05:27:49.230Z,13.22
2022-11-07T05:30:15.801Z,13.19
2022-11-07T05:32:42.356Z,13.16
2022-11-07T05:35:09.324Z,13.12
2022-11-07T05:37:35.971Z,13.09
2022-11-07T05:40:02.520Z,13.06
2022-11-07T05:42:29.033Z,13.00
2022-11-07T05:44:55.600Z,13.01
2022-11-07T05:47:22.102Z,13.01
2022-11-07T05:49:48.616Z,13.02
2022-11-07T05:52:15.241Z,13.04
2022-11-07T05:54:41.773Z,13.03
2022-11-07T05:57:08.316Z,13.04
2022-11-07T05:59:34.925Z,13.09
2022-11-07T06:13:17.761Z,13.15
2022-11-07T06:16:14.632Z,13.11
2022-11-07T06:18:41.907Z,13.12
2022-11-07T06:21:08.619Z,13.18
2022-11-07T06:23:35.144Z,13.22
2022-11-07T06:26:02.210Z,13.25
2022-11-07T06:28:28.724Z,13.28
2022-11-07T06:31:00.072Z,13.31
2022-11-07T06:33:26.823Z,13.36
2022-11-07T06:35:53.343Z,13.45
2022-11-07T06:38:20.115Z,13.50
2022-11-07T06:40:46.679Z,13.51
2022-11-07T06:43:16.455Z,13.49
2022-11-07T06:45:45.047Z,13.46
2022-11-07T06:48:12.298Z,13.41
2022-11-07T06:50:39.124Z,13.38
2022-11-07T06:53:12.025Z,13.35
2022-11-07T06:55:39.299Z,13.32
2022-11-07T06:58:06.199Z,13.28
2022-11-07T07:00:34.508Z,13.28
2022-11-07T07:03:01.358Z,13.28
2022-11-07T07:05:28.100Z,13.28
2022-11-07T07:07:55.699Z,13.31
2022-11-07T07:10:22.525Z,13.30
2022-11-07T07:12:49.080Z,13.28
2022-11-07T07:15:15.593Z,13.30
2022-11-07T07:17:42.118Z,13.31
2022-11-07T07:20:09.603Z,13.34
2022-11-07T07:22:36.259Z,13.35
2022-11-07T07:25:02.779Z,13.38
2022-11-07T07:27:29.273Z,13.42
2022-11-07T07:29:55.812Z,13.46
2022-11-07T07:32:25.132Z,13.49
2022-11-07T07:34:52.244Z,13.52
2022-11-07T07:37:19.354Z,13.56
2022-11-07T07:39:45.930Z,13.64
2022-11-07T07:42:12.452Z,13.67
2022-11-07T07:44:39.032Z,13.65
2022-11-07T07:47:10.900Z,13.64
2022-11-07T07:49:38.055Z,13.60
2022-11-07T07:52:05.031Z,13.59
2022-11-07T07:54:31.671Z,13.56
2022-11-07T07:56:58.239Z,13.56
2022-11-07T07:59:24.858Z,13.55
2022-11-07T08:01:56.477Z,13.57
2022-11-07T08:04:23.639Z,13.58
2022-11-07T08:06:50.195Z,13.61
2022-11-07T08:09:16.685Z,13.60
2022-11-07T08:11:43.208Z,13.60
2022-11-07T08:14:11.568Z,13.63
2022-11-07T08:16:38.137Z,13.65
2022-11-07T08:19:04.777Z,13.70
2022-11-07T08:21:31.364Z,13.76
2022-11-07T08:23:57.949Z,13.81
2022-11-07T08:26:24.511Z,13.84
2022-11-07T08:28:53.921Z,13.86
2022-11-07T08:31:20.649Z,13.88
2022-11-07T08:33:47.261Z,13.93
2022-11-07T08:36:13.902Z,13.94
2022-11-07T08:38:40.436Z,13.94
2022-11-07T08:41:07.066Z,13.97
2022-11-07T08:43:33.696Z,13.99
2022-11-07T08:46:00.376Z,14.05
2022-11-07T08:48:26.913Z,14.13
2022-11-07T08:50:55.723Z,14.18
2022-11-07T08:53:23.698Z,14.26
2022-11-07T08:55:50.452Z,14.32
2022-11-07T08:58:17.546Z,14.38
2022-11-07T09:00:44.221Z,14.42
2022-11-07T09:05:58.678Z,14.47
2022-11-07T09:08:25.515Z,14.50
2022-11-07T09:10:52.068Z,14.55
2022-11-07T09:13:20.763Z,14.61
2022-11-07T09:15:51.061Z,14.71
2022-11-07T09:18:19.424Z,14.82
2022-11-07T09:20:46.004Z,14.85
2022-11-07T09:23:12.543Z,14.85
2022-11-07T09:25:39.093Z,14.84
2022-11-07T09:28:05.879Z,14.82
2022-11-07T09:30:32.931Z,14.85
2022-11-07T09:33:00.052Z,14.85
2022-11-07T09:35:27.241Z,14.85
2022-11-07T09:37:54.057Z,14.89
2022-11-07T09:40:40.738Z,14.94
2022-11-07T09:43:07.338Z,14.97
2022-11-07T09:45:51.658Z,14.94
2022-11-07T09:48:24.446Z,14.95
2022-11-07T09:50:51.739Z,15.02
2022-11-07T09:53:27.172Z,15.09
2022-11-07T09:55:57.788Z,15.16
2022-11-07T09:58:31.432Z,15.18
2022-11-07T10:01:02.922Z,15.25
2022-11-07T10:03:30.188Z,15.23
2022-11-07T10:06:34.258Z,15.22
2022-11-07T10:09:11.312Z,15.24
2022-11-07T10:11:53.439Z,15.29
2022-11-07T10:14:49.192Z,15.33
2022-11-07T10:17:42.570Z,15.43
2022-11-07T10:20:35.307Z,15.53
2022-11-07T10:23:17.860Z,15.58
2022-11-07T10:25:52.971Z,15.67
2022-11-07T10:28:20.774Z,15.75
2022-11-07T10:30:52.887Z,15.69
2022-11-07T10:33:51.927Z,15.56
2022-11-07T10:36:32.543Z,15.57
2022-11-07T10:39:01.711Z,15.54
2022-11-07T10:41:31.235Z,15.48
2022-11-07T10:44:04.971Z,15.46
2022-11-07T10:46:41.915Z,15.47
2022-11-07T10:49:23.306Z,15.49
2022-11-07T10:51:50.763Z,15.54
2022-11-07T10:54:35.858Z,15.57
2022-11-07T10:57:15.554Z,15.63
2022-11-07T10:59:59.223Z,15.58
2022-11-07T11:02:30.198Z,15.60
2022-11-07T11:04:59.525Z,15.61
2022-11-07T11:07:37.072Z,15.62
2022-11-07T11:10:17.217Z,15.66
2022-11-07T11:12:47.016Z,15.68
2022-11-07T11:15:15.016Z,15.73
2022-11-07T11:17:42.072Z,15.81
2022-11-07T11:20:26.634Z,15.89
2022-11-07T11:22:53.922Z,16.00
2022-11-07T11:25:21.980Z,16.02
2022-11-07T11:28:10.072Z,15.94
2022-11-07T11:30:37.128Z,15.98
2022-11-07T11:33:13.821Z,16.03
2022-11-07T11:35:46.953Z,16.17
2022-11-07T11:38:22.863Z,16.24
2022-11-07T11:41:03.371Z,16.29
2022-11-07T11:43:59.031Z,16.28
2022-11-07T11:46:38.570Z,16.35
2022-11-07T11:49:32.405Z,16.45
2022-11-07T11:52:24.086Z,16.51
2022-11-07T11:54:52.780Z,16.40
2022-11-07T11:57:38.120Z,16.30
2022-11-07T12:00:23.044Z,16.28
2022-11-07T12:03:00.465Z,16.31
2022-11-07T12:05:40.877Z,16.35
2022-11-07T12:08:32.440Z,16.26
2022-11-07T12:10:59.939Z,16.24
2022-11-07T12:13:42.578Z,16.28
2022-11-07T12:16:09.550Z,16.31
2022-11-07T12:18:54.896Z,16.36
2022-11-07T12:21:48.634Z,16.40
2022-11-07T12:24:37.255Z,16.35
2022-11-07T12:27:28.137Z,16.29
2022-11-07T12:30:05.747Z,16.24
2022-11-07T12:32:38.120Z,16.22
2022-11-07T12:35:26.444Z,16.25
2022-11-07T12:37:59.019Z,16.30
2022-11-07T12:40:43.907Z,16.33
2022-11-07T12:43:18.741Z,16.38
2022-11-07T12:46:00.971Z,16.40
2022-11-07T12:48:39.698Z,16.45
2022-11-07T12:51:15.468Z,16.47
2022-11-07T12:54:16.225Z,16.45
2022-11-07T12:56:45.291Z,16.47
2022-11-07T12:59:21.026Z,16.45
2022-11-07T13:02:06.534Z,16.46
2022-11-07T13:04:38.905Z,16.45
2022-11-07T13:07:44.035Z,16.42
2022-11-07T13:10:10.480Z,16.44
2022-11-07T13:13:01.680Z,16.45
2022-11-07T13:15:31.870Z,16.50
2022-11-07T13:18:24.999Z,16.52
2022-11-07T13:21:02.861Z,16.51
2022-11-07T13:23:30.251Z,16.50
2022-11-07T13:26:25.946Z,16.57
2022-11-07T13:28:57.845Z,16.64
2022-11-07T13:31:40.443Z,16.63
2022-11-07T13:34:26.715Z,16.60
2022-11-07T13:37:01.111Z,16.58
2022-11-07T13:39:30.410Z,16.55
2022-11-07T13:41:59.530Z,16.57
2022-11-07T13:44:34.828Z,16.64
2022-11-07T13:47:05.283Z,16.73
2022-11-07T13:49:44.763Z,16.70
2022-11-07T13:52:19.507Z,16.72
2022-11-07T13:55:05.796Z,16.72
2022-11-07T13:57:40.340Z,16.75
2022-11-07T14:00:10.980Z,16.80
2022-11-07T14:02:37.725Z,16.80
2022-11-07T14:05:17.687Z,16.77
2022-11-07T14:08:16.872Z,16.71
2022-11-07T14:10:48.838Z,16.71
2022-11-07T14:13:41.336Z,16.68
2022-11-07T14:16:17.610Z,16.62
2022-11-07T14:18:56.759Z,16.57
2022-11-07T14:21:27.279Z,16.53
2022-11-07T14:23:54.041Z,16.49
2022-11-07T14:26:30.672Z,16.45
2022-11-07T14:28:57.969Z,16.40
2022-11-07T14:31:34.272Z,16.36
2022-11-07T14:34:03.742Z,16.35
2022-11-07T14:36:31.313Z,16.35
2022-11-07T14:39:05.185Z,16.32
2022-11-07T14:41:32.093Z,16.28
2022-11-07T14:44:03.891Z,16.23
2022-11-07T14:46:30.914Z,16.20
2022-11-07T14:48:57.824Z,16.16
2022-11-07T14:51:27.832Z,16.14
2022-11-07T14:54:04.372Z,16.12
2022-11-07T14:56:37.706Z,16.07
2022-11-07T14:59:04.806Z,16.08
2022-11-07T15:01:34.227Z,16.07
2022-11-07T15:04:05.536Z,16.08
2022-11-07T15:06:34.714Z,16.06
2022-11-07T15:09:05.539Z,16.05
2022-11-07T15:11:35.172Z,16.04
2022-11-07T15:14:04.121Z,16.04
2022-11-07T15:16:38.067Z,16.00
2022-11-07T15:19:08.856Z,16.00
2022-11-07T15:21:38.608Z,15.99
2022-11-07T15:24:47.403Z,15.92
2022-11-07T15:27:13.878Z,15.94
2022-11-07T15:29:53.644Z,15.91
2022-11-07T15:32:22.896Z,15.90
2022-11-07T15:37:38.629Z,15.88
2022-11-07T15:40:31.492Z,15.80
2022-11-07T15:42:58.298Z,15.79
2022-11-07T15:45:25.103Z,15.77
2022-11-07T15:47:51.934Z,15.72
2022-11-07T15:50:24.851Z,15.69
2022-11-07T15:52:52.889Z,15.62
2022-11-07T15:55:21.787Z,15.57
2022-11-07T15:57:51.646Z,15.53
2022-11-07T16:00:20.843Z,15.51
2022-11-07T16:02:47.973Z,15.47
2022-11-07T16:05:15.258Z,15.47
2022-11-07T16:07:43.420Z,15.44
2022-11-07T16:10:26.798Z,15.37
2022-11-07T16:12:54.089Z,15.39
2022-11-07T16:15:23.654Z,15.37
2022-11-07T16:17:50.513Z,15.39
2022-11-07T16:20:20.430Z,15.39
2022-11-07T16:22:48.200Z,15.40
2022-11-07T16:25:21.381Z,15.39
2022-11-07T16:27:59.127Z,15.37
2022-11-07T16:30:27.306Z,15.37
2022-11-07T16:32:53.819Z,15.36
2022-11-07T16:35:20.368Z,15.32
2022-11-07T16:37:47.081Z,15.30
2022-11-07T16:40:17.879Z,15.26
2022-11-07T16:42:45.036Z,15.22
2022-11-07T16:45:17.113Z,15.20
2022-11-07T16:47:44.143Z,15.11
2022-11-07T16:50:16.838Z,15.11
2022-11-07T16:52:43.516Z,15.07
2022-11-07T16:55:19.796Z,15.04
2022-11-07T16:57:46.984Z,15.05
2022-11-07T17:00:18.832Z,15.04
2022-11-07T17:02:45.493Z,15.02
2022-11-07T17:05:12.794Z,15.02
2022-11-07T17:07:39.313Z,15.01
2022-11-07T17:10:06.517Z,14.98
2022-11-07T17:12:33.447Z,14.94
2022-11-07T17:15:00.044Z,14.90
2022-11-07T17:17:26.539Z,14.88
2022-11-07T17:19:53.055Z,14.85
2022-11-07T17:22:20.010Z,14.82
2022-11-07T17:24:47.275Z,14.80
2022-11-07T17:27:22.772Z,14.76
2022-11-07T17:29:50.278Z,14.77
2022-11-07T17:32:17.162Z,14.77
2022-11-07T17:34:44.130Z,14.77
2022-11-07T17:37:16.490Z,14.76
2022-11-07T17:39:45.992Z,14.72
2022-11-07T17:42:12.957Z,14.68
2022-11-07T17:44:40.080Z,14.68
2022-11-07T17:47:07.026Z,14.67
2022-11-07T17:49:33.655Z,14.65
2022-11-07T17:52:00.189Z,14.63
2022-11-07T17:54:29.449Z,14.59
2022-11-07T17:56:56.397Z,14.57
2022-11-07T17:59:23.398Z,14.56
2022-11-07T18:01:50.073Z,14.55
2022-11-07T18:04:16.734Z,14.55
2022-11-07T18:06:43.457Z,14.54
2022-11-07T18:09:14.314Z,14.52
2022-11-07T18:11:40.882Z,14.50
2022-11-07T18:14:07.813Z,14.50
2022-11-07T18:16:36.110Z,14.49
2022-11-07T18:19:04.331Z,14.49
2022-11-07T18:21:31.264Z,14.51
2022-11-07T18:23:58.172Z,14.52
2022-11-07T18:26:30.907Z,14.54
2022-11-07T18:29:02.108Z,14.53
2022-11-07T18:31:28.644Z,14.55
2022-11-07T18:34:00.420Z,14.58
2022-11-07T18:36:28.219Z,14.58
2022-11-07T18:38:54.741Z,14.57
2022-11-07T18:41:22.983Z,14.57
2022-11-07T18:43:50.176Z,14.58
2022-11-07T18:46:19.323Z,14.59
2022-11-07T18:48:46.673Z,14.58
2022-11-07T18:51:19.213Z,14.55
2022-11-07T18:53:46.028Z,14.50
2022-11-07T18:56:13.732Z,14.46
2022-11-07T18:58:42.465Z,14.40
2022-11-07T19:01:21.830Z,14.33
2022-11-07T19:03:48.732Z,14.23
2022-11-07T19:06:18.150Z,14.20
2022-11-07T19:08:47.756Z,14.14
2022-11-07T19:11:17.757Z,14.09
2022-11-07T19:13:47.906Z,14.01
2022-11-07T19:16:16.932Z,13.94
2022-11-07T19:18:49.085Z,13.90
2022-11-07T19:21:20.491Z,13.83
2022-11-07T19:23:48.396Z,13.80
2022-11-07T19:26:15.963Z,13.78
2022-11-07T19:28:42.511Z,13.79
2022-11-07T19:31:12.974Z,13.79
2022-11-07T19:33:41.431Z,13.80
2022-11-07T19:36:13.177Z,13.79
2022-11-07T19:38:39.741Z,13.76
2022-11-07T19:41:07.682Z,13.74
2022-11-07T19:43:34.825Z,13.72
2022-11-07T19:46:07.093Z,13.71
2022-11-07T19:48:33.749Z,13.69
2022-11-07T19:51:03.713Z,13.64
2022-11-07T19:53:30.233Z,13.58
2022-11-07T19:55:56.801Z,13.54
2022-11-07T19:58:23.476Z,13.48
2022-11-07T20:00:50.004Z,13.43
2022-11-07T20:03:16.983Z,13.37
2022-11-07T20:05:43.936Z,13.33
2022-11-07T20:08:10.491Z,13.25
2022-11-07T20:10:37.014Z,13.20
2022-11-07T20:13:03.520Z,13.14
2022-11-07T20:15:30.030Z,13.11
2022-11-07T20:17:56.569Z,13.01
2022-11-07T20:20:23.086Z,12.96
2022-11-07T20:22:49.673Z,12.93
2022-11-07T20:25:16.426Z,12.89
2022-11-07T20:27:42.962Z,12.87
2022-11-07T20:30:10.333Z,12.79
2022-11-07T20:32:37.048Z,12.69
2022-11-07T20:35:04.108Z,12.59
2022-11-07T20:37:31.005Z,12.47
2022-11-07T20:39:57.638Z,12.38
2022-11-07T20:42:24.177Z,12.29
2022-11-07T20:44:51.207Z,12.18
2022-11-07T20:47:18.020Z,12.08
2022-11-07T20:49:44.663Z,12.01
2022-11-07T20:52:11.334Z,11.96
2022-11-07T20:54:39.409Z,11.92
2022-11-07T20:57:06.076Z,11.87
2022-11-07T20:59:33.076Z,11.80
2022-11-07T21:02:03.387Z,11.77
2022-11-07T21:04:49.578Z,11.70
2022-11-07T21:07:19.709Z,11.63
2022-11-07T21:09:46.929Z,11.57
2022-11-07T21:12:14.359Z,11.53
2022-11-07T21:14:42.386Z,11.50
2022-11-07T21:17:09.731Z,11.47
2022-11-07T21:19:36.432Z,11.42
2022-11-07T21:22:04.166Z,11.40
2022-11-07T21:24:31.488Z,11.38
2022-11-07T21:26:58.086Z,11.34
2022-11-07T21:29:29.280Z,11.34
2022-11-07T21:31:56.802Z,11.33
2022-11-07T21:34:23.393Z,11.34
2022-11-07T21:36:49.888Z,11.32
2022-11-07T21:39:17.470Z,11.30
2022-11-07T21:41:44.099Z,11.25
2022-11-07T21:44:12.343Z,11.21
2022-11-07T21:46:38.924Z,11.15
2022-11-07T21:49:06.275Z,11.11
2022-11-07T21:51:34.698Z,11.11
2022-11-07T21:54:02.921Z,11.13
2022-11-07T21:56:40.049Z,11.11
2022-11-07T21:59:10.919Z,11.11
2022-11-07T22:01:39.742Z,11.11
2022-11-07T22:04:10.886Z,11.11
2022-11-07T22:06:44.209Z,11.11
2022-11-07T22:09:14.447Z,11.11
2022-11-07T22:11:41.205Z,11.08
2022-11-07T22:14:07.857Z,11.10
2022-11-07T22:16:34.651Z,11.13
2022-11-07T22:19:01.591Z,11.19
2022-11-07T22:21:28.459Z,11.28
2022-11-07T22:23:55.714Z,11.37
2022-11-07T22:26:25.213Z,11.43
2022-11-07T22:28:51.940Z,11.51
2022-11-07T22:31:23.054Z,11.56
2022-11-07T22:33:50.981Z,11.58
2022-11-07T22:36:18.068Z,11.59
2022-11-07T22:38:44.806Z,11.57
2022-11-07T22:41:17.208Z,11.52
2022-11-07T22:43:43.991Z,11.48
2022-11-07T22:46:16.885Z,11.40
2022-11-07T22:48:45.223Z,11.33
2022-11-07T22:51:14.613Z,11.25
2022-11-07T22:53:41.508Z,11.17
2022-11-07T22:56:18.956Z,11.04
2022-11-07T22:58:47.118Z,10.97
2022-11-07T23:01:19.857Z,10.90
2022-11-07T23:03:47.301Z,10.83
2022-11-07T23:06:14.788Z,10.76
2022-11-07T23:08:41.493Z,10.71
2022-11-07T23:11:44.888Z,10.64
2022-11-07T23:14:03.977Z,10.60
2022-11-07T23:16:36.214Z,10.58
2022-11-07T23:19:05.797Z,10.56
2022-11-07T23:21:33.121Z,10.54
2022-11-07T23:24:00.358Z,10.55
2022-11-07T23:26:33.848Z,10.58
2022-11-07T23:29:22.938Z,10.52
2022-11-07T23:31:50.979Z,10.54
2022-11-07T23:34:19.390Z,10.56
2022-11-07T23:36:46.329Z,10.54
2022-11-07T23:39:18.598Z,10.48
2022-11-07T23:41:46.004Z,10.45
2022-11-07T23:44:13.527Z,10.40
2022-11-07T23:46:59.816Z,10.37
2022-11-07T23:49:44.699Z,10.34
2022-11-07T23:52:11.938Z,10.32
2022-11-07T23:54:57.097Z,10.32
2022-11-07T23:57:23.611Z,10.27
